createdAt,value
2019-02-14T00:00:59.469Z,5.10
2019-02-14T00:03:27.082Z,4.40
2019-02-14T00:05:54.399Z,5.40
2019-02-14T00:08:21.893Z,6.87
2019-02-14T00:10:49.262Z,4.85
2019-02-14T00:13:16.581Z,4.08
2019-02-14T00:15:43.873Z,4.30
2019-02-14T00:18:11.302Z,4.95
2019-02-14T00:20:38.742Z,4.00
2019-02-14T00:23:06.239Z,3.67
2019-02-14T00:25:36.578Z,3.67
2019-02-14T00:28:03.888Z,3.70
2019-02-14T00:30:31.418Z,4.03
2019-02-14T00:32:59.094Z,3.58
2019-02-14T00:35:26.510Z,4.00
2019-02-14T00:37:53.824Z,4.40
2019-02-14T00:40:21.119Z,3.90
2019-02-14T00:42:48.577Z,4.12
2019-02-14T00:45:16.117Z,3.95
2019-02-14T00:47:43.582Z,4.00
2019-02-14T00:50:10.777Z,4.12
2019-02-14T00:52:38.065Z,4.17
2019-02-14T00:55:05.386Z,3.60
2019-02-14T00:57:32.776Z,3.85
2019-02-14T01:00:00.300Z,3.17
2019-02-14T01:02:27.813Z,3.70
2019-02-14T01:04:55.320Z,3.95
2019-02-14T01:07:23.698Z,4.10
2019-02-14T01:09:51.235Z,4.30
2019-02-14T01:12:18.826Z,4.45
2019-02-14T01:14:46.244Z,4.15
2019-02-14T01:17:13.654Z,4.10
2019-02-14T01:19:41.039Z,4.40
2019-02-14T01:22:08.474Z,4.45
2019-02-14T01:24:35.652Z,4.20
2019-02-14T01:27:03.217Z,4.37
2019-02-14T01:29:30.485Z,3.58
2019-02-14T01:31:57.827Z,3.92
2019-02-14T01:34:25.216Z,3.52
2019-02-14T01:36:52.494Z,3.60
2019-02-14T01:39:20.035Z,3.58
2019-02-14T01:41:47.353Z,3.98
2019-02-14T01:44:14.769Z,4.00
2019-02-14T01:46:41.999Z,3.70
2019-02-14T01:49:09.353Z,3.30
2019-02-14T01:51:36.683Z,3.45
2019-02-14T01:54:04.090Z,3.22
2019-02-14T01:56:31.527Z,3.58
2019-02-14T01:58:58.850Z,4.28
2019-02-14T02:01:27.346Z,4.87
2019-02-14T02:03:54.819Z,4.45
2019-02-14T02:06:22.308Z,4.72
2019-02-14T02:08:49.709Z,4.42
2019-02-14T02:11:17.063Z,4.37
2019-02-14T02:13:44.422Z,4.67
2019-02-14T02:16:11.692Z,5.10
2019-02-14T02:18:39.322Z,4.60
2019-02-14T02:21:06.744Z,3.95
2019-02-14T02:23:34.303Z,3.60
2019-02-14T02:26:01.686Z,3.62
2019-02-14T02:28:29.574Z,4.35
2019-02-14T02:30:57.058Z,3.67
2019-02-14T02:33:24.525Z,3.50
2019-02-14T02:36:00.231Z,3.67
2019-02-14T02:38:20.993Z,4.30
2019-02-14T02:40:48.455Z,4.00
2019-02-14T02:43:15.843Z,3.92
2019-02-14T02:45:43.024Z,4.12
2019-02-14T02:48:10.351Z,4.65
2019-02-14T02:50:37.814Z,4.60
2019-02-14T02:53:05.243Z,6.20
2019-02-14T02:55:32.552Z,6.60
2019-02-14T02:57:59.959Z,6.50
2019-02-14T03:00:27.456Z,5.70
2019-02-14T03:02:54.849Z,5.30
2019-02-14T03:05:22.123Z,4.90
2019-02-14T03:07:49.489Z,4.25
2019-02-14T03:10:16.906Z,3.52
2019-02-14T03:12:44.315Z,3.75
2019-02-14T03:15:12.096Z,3.92
2019-02-14T03:17:39.377Z,3.60
2019-02-14T03:20:08.290Z,3.35
2019-02-14T03:22:35.681Z,3.55
2019-02-14T03:25:03.822Z,3.60
2019-02-14T03:27:31.240Z,4.40
2019-02-14T03:29:59.697Z,3.58
2019-02-14T03:32:27.051Z,4.10
2019-02-14T03:34:54.491Z,3.75
2019-02-14T03:37:22.185Z,3.67
2019-02-14T03:39:49.618Z,3.67
2019-02-14T03:42:16.961Z,3.47
2019-02-14T03:44:44.303Z,3.25
2019-02-14T03:47:11.715Z,3.45
2019-02-14T03:49:39.001Z,3.92
2019-02-14T03:52:10.531Z,3.70
2019-02-14T03:54:38.226Z,3.60
2019-02-14T03:57:06.769Z,4.03
2019-02-14T03:59:34.261Z,3.40
2019-02-14T04:02:01.678Z,3.60
2019-02-14T04:04:29.318Z,3.20
2019-02-14T04:06:56.865Z,3.33
2019-02-14T04:09:24.267Z,3.77
2019-02-14T04:11:51.732Z,4.00
2019-02-14T04:14:19.101Z,3.60
2019-02-14T04:16:46.560Z,4.05
2019-02-14T04:19:13.901Z,5.22
2019-02-14T04:21:41.279Z,4.35
2019-02-14T04:24:08.714Z,4.62
2019-02-14T04:26:35.960Z,4.70
2019-02-14T04:29:03.336Z,4.87
2019-02-14T04:31:30.701Z,5.30
2019-02-14T04:33:57.902Z,4.95
2019-02-14T04:36:25.322Z,5.05
2019-02-14T04:38:52.677Z,4.70
2019-02-14T04:41:20.080Z,4.90
2019-02-14T04:43:47.605Z,4.35
2019-02-14T04:46:15.024Z,4.53
2019-02-14T04:48:42.506Z,5.17
2019-02-14T04:51:09.771Z,4.30
2019-02-14T04:53:37.323Z,5.08
2019-02-14T04:56:04.757Z,4.90
2019-02-14T04:58:32.128Z,4.12
2019-02-14T05:00:59.530Z,4.83
2019-02-14T05:03:26.994Z,4.80
2019-02-14T05:05:54.363Z,3.72
2019-02-14T05:08:22.960Z,5.20
2019-02-14T05:10:50.328Z,4.40
2019-02-14T05:13:20.384Z,4.20
2019-02-14T05:15:48.824Z,4.15
2019-02-14T05:18:16.184Z,4.65
2019-02-14T05:20:43.404Z,5.30
2019-02-14T05:23:10.855Z,4.80
2019-02-14T05:25:38.209Z,5.22
2019-02-14T05:28:05.558Z,4.80
2019-02-14T05:30:33.014Z,5.25
2019-02-14T05:33:00.478Z,5.58
2019-02-14T05:35:27.841Z,4.95
2019-02-14T05:37:55.318Z,5.28
2019-02-14T05:40:22.700Z,5.83
2019-02-14T05:42:50.390Z,5.40
2019-02-14T05:45:17.770Z,5.20
2019-02-14T05:47:45.160Z,7.95
2019-02-14T05:50:12.500Z,8.73
2019-02-14T05:52:40.004Z,9.83
2019-02-14T05:55:08.468Z,11.33
2019-02-14T05:57:35.848Z,14.47
2019-02-14T06:00:03.874Z,17.77
2019-02-14T06:02:32.429Z,19.57
2019-02-14T06:05:01.729Z,19.15
2019-02-14T06:07:29.184Z,19.15
2019-02-14T06:09:56.660Z,19.25
2019-02-14T06:12:24.057Z,18.90
2019-02-14T06:14:51.516Z,19.27
2019-02-14T06:17:18.811Z,17.05
2019-02-14T06:19:46.184Z,14.15
2019-02-14T06:22:13.457Z,11.00
2019-02-14T06:24:40.744Z,13.40
2019-02-14T06:27:08.138Z,11.20
2019-02-14T06:29:35.638Z,11.05
2019-02-14T06:32:03.039Z,10.32
2019-02-14T06:34:30.422Z,9.55
2019-02-14T06:36:57.923Z,8.48
2019-02-14T06:39:25.332Z,8.50
2019-02-14T06:41:52.950Z,8.60
2019-02-14T06:44:20.453Z,7.72
2019-02-14T06:46:48.968Z,7.85
2019-02-14T06:49:16.370Z,8.68
2019-02-14T06:51:43.753Z,8.05
2019-02-14T06:54:11.194Z,8.28
2019-02-14T06:56:38.615Z,7.67
2019-02-14T06:59:05.882Z,7.17
2019-02-14T07:01:33.227Z,7.58
2019-02-14T07:04:00.708Z,7.08
2019-02-14T07:06:28.085Z,7.75
2019-02-14T07:08:55.529Z,6.92
2019-02-14T07:11:22.743Z,7.10
2019-02-14T07:13:50.102Z,6.87
2019-02-14T07:16:17.575Z,6.67
2019-02-14T07:18:45.059Z,6.87
2019-02-14T07:21:12.470Z,6.15
2019-02-14T07:23:39.845Z,6.85
2019-02-14T07:26:07.218Z,7.28
2019-02-14T07:28:34.588Z,6.45
2019-02-14T07:31:01.973Z,6.58
2019-02-14T07:33:29.399Z,7.92
2019-02-14T07:35:56.780Z,7.55
2019-02-14T07:38:24.072Z,7.08
2019-02-14T07:40:52.431Z,7.78
2019-02-14T07:43:19.888Z,7.03
2019-02-14T07:45:47.163Z,7.67
2019-02-14T07:48:14.538Z,7.00
2019-02-14T07:50:41.886Z,7.15
2019-02-14T07:53:09.198Z,6.65
2019-02-14T07:55:36.572Z,6.85
2019-02-14T07:58:03.980Z,6.30
2019-02-14T08:00:31.442Z,7.05
2019-02-14T08:02:58.826Z,8.23
2019-02-14T08:05:26.246Z,9.00
2019-02-14T08:07:53.501Z,8.98
2019-02-14T08:10:20.902Z,7.70
2019-02-14T08:12:48.078Z,8.30
2019-02-14T08:15:15.491Z,9.03
2019-02-14T08:17:42.849Z,10.85
2019-02-14T08:20:10.552Z,8.95
2019-02-14T08:22:37.821Z,8.43
2019-02-14T08:25:06.626Z,9.20
2019-02-14T08:27:33.936Z,10.35
2019-02-14T08:30:01.285Z,9.93
2019-02-14T08:32:28.702Z,11.65
2019-02-14T08:34:56.015Z,10.88
2019-02-14T08:37:23.411Z,9.98
2019-02-14T08:39:50.786Z,9.98
2019-02-14T08:42:19.129Z,11.10
2019-02-14T08:44:46.609Z,13.48
2019-02-14T08:47:13.987Z,12.53
2019-02-14T08:49:41.409Z,11.63
2019-02-14T08:52:08.825Z,10.80
2019-02-14T08:54:36.250Z,11.08
2019-02-14T08:57:03.605Z,11.60
2019-02-14T08:59:31.882Z,12.40
2019-02-14T09:01:59.246Z,12.25
2019-02-14T09:04:26.726Z,11.65
2019-02-14T09:06:54.261Z,11.93
2019-02-14T09:09:21.596Z,11.45
2019-02-14T09:11:49.052Z,11.68
2019-02-14T09:14:16.434Z,11.85
2019-02-14T09:16:43.911Z,11.20
2019-02-14T09:19:11.109Z,12.73
2019-02-14T09:21:38.522Z,10.43
2019-02-14T09:24:05.763Z,12.10
2019-02-14T09:26:33.118Z,11.18
2019-02-14T09:29:00.406Z,10.85
2019-02-14T09:31:27.678Z,10.85
2019-02-14T09:33:55.051Z,11.35
2019-02-14T09:36:22.443Z,11.12
2019-02-14T09:38:49.870Z,11.38
2019-02-14T09:41:17.251Z,10.68
2019-02-14T09:43:44.627Z,10.68
2019-02-14T09:46:12.053Z,9.80
2019-02-14T09:48:39.477Z,10.32
2019-02-14T09:51:06.977Z,10.70
2019-02-14T09:53:34.445Z,10.00
2019-02-14T09:56:01.799Z,10.53
2019-02-14T09:58:29.435Z,10.10
2019-02-14T10:00:56.863Z,10.43
2019-02-14T10:03:24.236Z,9.60
2019-02-14T10:05:51.605Z,11.15
2019-02-14T10:08:19.055Z,10.13
2019-02-14T10:10:46.783Z,10.78
2019-02-14T10:13:14.148Z,11.75
2019-02-14T10:15:41.438Z,11.22
2019-02-14T10:18:08.788Z,11.08
2019-02-14T10:20:36.225Z,10.98
2019-02-14T10:23:03.639Z,11.03
2019-02-14T10:25:31.007Z,10.13
2019-02-14T10:27:58.540Z,9.93
2019-02-14T10:30:25.889Z,10.98
2019-02-14T10:32:53.043Z,10.55
2019-02-14T10:35:20.399Z,10.95
2019-02-14T10:37:47.745Z,12.33
2019-02-14T10:40:15.050Z,12.47
2019-02-14T10:42:42.504Z,12.37
2019-02-14T10:45:11.852Z,11.75
2019-02-14T10:47:39.165Z,11.73
2019-02-14T10:50:07.700Z,11.05
2019-02-14T10:52:35.078Z,11.95
2019-02-14T10:55:02.809Z,12.05
2019-02-14T10:57:30.154Z,12.28
2019-02-14T10:59:57.798Z,11.90
2019-02-14T11:02:25.174Z,11.15
2019-02-14T11:04:52.600Z,12.18
2019-02-14T11:07:20.094Z,11.85
2019-02-14T11:09:47.331Z,11.18
2019-02-14T11:12:14.760Z,10.93
2019-02-14T11:14:42.022Z,11.40
2019-02-14T11:17:09.418Z,12.15
2019-02-14T11:19:36.795Z,12.58
2019-02-14T11:22:04.055Z,12.43
2019-02-14T11:24:31.314Z,12.63
2019-02-14T11:26:58.649Z,11.90
2019-02-14T11:29:26.090Z,14.05
2019-02-14T11:31:53.563Z,13.72
2019-02-14T11:34:20.936Z,13.70
2019-02-14T11:36:48.359Z,15.05
2019-02-14T11:39:15.766Z,13.53
2019-02-14T11:41:43.098Z,12.98
2019-02-14T11:44:10.453Z,13.03
2019-02-14T11:46:37.650Z,12.63
2019-02-14T11:49:04.980Z,13.13
2019-02-14T11:51:32.355Z,13.20
2019-02-14T11:53:59.790Z,12.60
2019-02-14T11:56:27.158Z,12.33
2019-02-14T11:58:54.617Z,12.20
2019-02-14T12:01:21.941Z,12.95
2019-02-14T12:03:49.370Z,12.55
2019-02-14T12:06:17.738Z,12.78
2019-02-14T12:08:57.778Z,12.85
2019-02-14T12:11:14.589Z,13.10
2019-02-14T12:13:41.974Z,12.93
2019-02-14T12:16:09.608Z,12.85
2019-02-14T12:18:36.754Z,13.50
2019-02-14T12:21:03.889Z,13.18
2019-02-14T12:23:31.350Z,13.48
2019-02-14T12:25:58.659Z,14.73
2019-02-14T12:28:26.180Z,13.95
2019-02-14T12:30:53.598Z,13.40
2019-02-14T12:33:20.882Z,15.05
2019-02-14T12:35:48.274Z,14.58
2019-02-14T12:38:15.646Z,13.95
2019-02-14T12:40:43.014Z,15.03
2019-02-14T12:43:10.291Z,15.40
2019-02-14T12:45:37.790Z,15.25
2019-02-14T12:48:05.236Z,14.85
2019-02-14T12:50:32.600Z,14.93
2019-02-14T12:52:59.936Z,15.28
2019-02-14T12:55:27.228Z,15.53
2019-02-14T12:57:54.614Z,16.00
2019-02-14T13:00:22.063Z,15.78
2019-02-14T13:02:49.392Z,15.75
2019-02-14T13:05:16.807Z,15.40
2019-02-14T13:07:44.140Z,14.83
2019-02-14T13:10:11.622Z,15.00
2019-02-14T13:12:39.125Z,15.65
2019-02-14T13:15:08.963Z,15.18
2019-02-14T13:17:36.476Z,15.32
2019-02-14T13:20:04.013Z,16.70
2019-02-14T13:22:31.380Z,13.93
2019-02-14T13:24:58.658Z,16.20
2019-02-14T13:27:26.092Z,17.57
2019-02-14T13:29:53.574Z,17.32
2019-02-14T13:32:20.922Z,17.07
2019-02-14T13:34:48.284Z,17.35
2019-02-14T13:37:15.556Z,15.05
2019-02-14T13:39:43.058Z,16.15
2019-02-14T13:42:10.449Z,14.53
2019-02-14T13:44:37.838Z,14.05
2019-02-14T13:47:05.243Z,15.68
2019-02-14T13:49:32.946Z,15.30
2019-02-14T13:52:00.600Z,15.72
2019-02-14T13:54:27.915Z,14.73
2019-02-14T13:56:55.054Z,13.68
2019-02-14T13:59:22.444Z,15.23
2019-02-14T14:01:49.858Z,16.23
2019-02-14T14:04:17.314Z,15.63
2019-02-14T14:06:44.796Z,14.33
2019-02-14T14:09:12.281Z,15.25
2019-02-14T14:11:39.639Z,15.43
2019-02-14T14:14:07.013Z,16.00
2019-02-14T14:16:34.398Z,14.58
2019-02-14T14:19:06.320Z,14.65
2019-02-14T14:21:30.820Z,14.07
2019-02-14T14:23:58.253Z,16.35
2019-02-14T14:26:25.635Z,15.63
2019-02-14T14:28:52.981Z,15.00
2019-02-14T14:31:20.385Z,16.52
2019-02-14T14:33:47.718Z,18.12
2019-02-14T14:36:15.024Z,18.67
2019-02-14T14:38:42.516Z,20.57
2019-02-14T14:41:10.054Z,15.48
2019-02-14T14:43:49.005Z,16.67
2019-02-14T14:46:23.252Z,16.35
2019-02-14T14:48:50.571Z,16.48
2019-02-14T14:51:17.976Z,15.65
2019-02-14T14:53:45.406Z,14.18
2019-02-14T14:56:12.835Z,16.20
2019-02-14T14:58:40.310Z,15.08
2019-02-14T15:01:07.574Z,15.20
2019-02-14T15:03:35.029Z,17.30
2019-02-14T15:06:02.435Z,13.93
2019-02-14T15:08:29.823Z,16.37
2019-02-14T15:10:58.014Z,13.08
2019-02-14T15:13:25.338Z,14.58
2019-02-14T15:15:52.738Z,15.00
2019-02-14T15:18:20.193Z,12.43
2019-02-14T15:20:47.682Z,13.40
2019-02-14T15:23:14.992Z,12.20
2019-02-14T15:25:42.394Z,14.03
2019-02-14T15:28:09.771Z,13.40
2019-02-14T15:30:37.198Z,13.90
2019-02-14T15:33:04.540Z,10.75
2019-02-14T15:35:31.963Z,12.70
2019-02-14T15:37:59.297Z,11.80
2019-02-14T15:40:26.674Z,12.58
2019-02-14T15:42:54.144Z,11.48
2019-02-14T15:45:21.495Z,11.73
2019-02-14T15:47:48.859Z,13.18
2019-02-14T15:50:16.282Z,14.05
2019-02-14T15:52:43.680Z,12.70
2019-02-14T15:55:11.003Z,11.57
2019-02-14T15:57:40.449Z,13.13
2019-02-14T16:00:10.510Z,11.53
2019-02-14T16:02:37.355Z,12.73
2019-02-14T16:05:04.943Z,11.15
2019-02-14T16:07:32.159Z,12.25
2019-02-14T16:10:03.320Z,11.73
2019-02-14T16:12:30.276Z,10.88
2019-02-14T16:14:57.430Z,9.85
2019-02-14T16:17:24.843Z,10.10
2019-02-14T16:19:52.108Z,12.07
2019-02-14T16:22:19.588Z,11.48
2019-02-14T16:24:47.091Z,9.63
2019-02-14T16:27:14.498Z,11.57
2019-02-14T16:29:41.861Z,12.88
2019-02-14T16:32:10.410Z,12.90
2019-02-14T16:34:37.819Z,10.53
2019-02-14T16:37:05.413Z,8.88
2019-02-14T16:39:32.821Z,7.28
2019-02-14T16:42:00.114Z,8.08
2019-02-14T16:44:27.473Z,6.80
2019-02-14T16:46:54.720Z,8.05
2019-02-14T16:49:22.120Z,7.92
2019-02-14T16:51:49.599Z,7.58
2019-02-14T16:54:16.835Z,6.67
2019-02-14T16:56:44.163Z,7.05
2019-02-14T16:59:11.503Z,5.85
2019-02-14T17:01:39.281Z,6.00
2019-02-14T17:04:07.179Z,6.20
2019-02-14T17:06:35.581Z,7.55
2019-02-14T17:09:05.033Z,7.72
2019-02-14T17:11:34.472Z,6.45
2019-02-14T17:14:01.990Z,5.33
2019-02-14T17:16:38.996Z,6.08
2019-02-14T17:19:09.875Z,5.75
2019-02-14T17:21:37.513Z,7.33
2019-02-14T17:24:05.226Z,6.15
2019-02-14T17:26:32.620Z,7.28
2019-02-14T17:29:00.074Z,8.50
2019-02-14T17:31:27.330Z,6.05
2019-02-14T17:33:55.641Z,6.60
2019-02-14T17:36:22.989Z,6.75
2019-02-14T17:38:50.356Z,5.83
2019-02-14T17:41:17.844Z,6.60
2019-02-14T17:43:45.404Z,6.90
2019-02-14T17:46:12.802Z,6.97
2019-02-14T17:48:40.308Z,6.10
2019-02-14T17:51:07.790Z,36.83
2019-02-14T17:53:35.193Z,20.30
2019-02-14T17:56:02.586Z,10.98
2019-02-14T17:58:30.140Z,8.53
2019-02-14T18:00:57.514Z,8.20
2019-02-14T18:03:25.157Z,7.30
2019-02-14T18:05:52.571Z,6.62
2019-02-14T18:08:20.071Z,6.28
2019-02-14T18:10:54.734Z,6.60
2019-02-14T18:13:17.008Z,5.25
2019-02-14T18:15:44.339Z,8.33
2019-02-14T18:18:12.902Z,7.08
2019-02-14T18:20:40.315Z,6.95
2019-02-14T18:23:07.746Z,6.97
2019-02-14T18:25:35.218Z,5.35
2019-02-14T18:28:02.644Z,4.85
2019-02-14T18:30:30.137Z,6.25
2019-02-14T18:32:57.658Z,5.95
2019-02-14T18:35:25.101Z,7.47
2019-02-14T18:37:52.381Z,6.85
2019-02-14T18:40:19.826Z,6.22
2019-02-14T18:42:47.342Z,7.15
2019-02-14T18:45:14.707Z,6.67
2019-02-14T18:47:42.278Z,6.50
2019-02-14T18:50:10.082Z,6.25
2019-02-14T18:52:37.663Z,6.33
2019-02-14T18:55:05.459Z,6.33
2019-02-14T18:57:32.950Z,7.10
2019-02-14T19:00:00.443Z,7.17
2019-02-14T19:02:27.950Z,7.33
2019-02-14T19:04:55.360Z,6.65
2019-02-14T19:07:22.777Z,8.08
2019-02-14T19:09:50.237Z,7.42
2019-02-14T19:12:17.691Z,8.23
2019-02-14T19:14:45.027Z,7.60
2019-02-14T19:17:12.395Z,7.47
2019-02-14T19:19:41.010Z,12.43
2019-02-14T19:22:08.784Z,17.40
2019-02-14T19:24:36.254Z,13.05
2019-02-14T19:27:03.655Z,12.13
2019-02-14T19:29:31.057Z,13.30
2019-02-14T19:31:58.519Z,13.35
2019-02-14T19:34:25.870Z,10.90
2019-02-14T19:36:53.310Z,11.38
2019-02-14T19:39:20.783Z,9.48
2019-02-14T19:41:48.185Z,8.30
2019-02-14T19:44:15.655Z,11.10
2019-02-14T19:46:43.017Z,12.58
2019-02-14T19:49:10.442Z,11.48
2019-02-14T19:51:38.410Z,10.43
2019-02-14T19:54:05.727Z,11.75
2019-02-14T19:56:33.155Z,10.75
2019-02-14T19:59:01.238Z,9.80
2019-02-14T20:01:28.612Z,10.03
2019-02-14T20:03:56.070Z,10.48
2019-02-14T20:06:23.533Z,10.40
2019-02-14T20:08:51.012Z,10.85
2019-02-14T20:11:18.499Z,12.40
2019-02-14T20:13:49.463Z,10.93
2019-02-14T20:16:15.344Z,10.08
2019-02-14T20:18:42.818Z,9.00
2019-02-14T20:21:10.316Z,10.78
2019-02-14T20:23:37.639Z,10.40
2019-02-14T20:26:05.082Z,10.28
2019-02-14T20:28:32.578Z,10.50
2019-02-14T20:30:59.995Z,12.82
2019-02-14T20:33:27.566Z,12.18
2019-02-14T20:35:55.051Z,11.95
2019-02-14T20:38:22.458Z,11.63
2019-02-14T20:40:50.128Z,9.73
2019-02-14T20:43:17.509Z,9.63
2019-02-14T20:45:44.950Z,9.40
2019-02-14T20:48:12.467Z,9.23
2019-02-14T20:50:40.019Z,8.80
2019-02-14T20:53:07.361Z,9.50
2019-02-14T20:55:34.928Z,8.68
2019-02-14T20:58:02.334Z,9.03
2019-02-14T21:00:35.652Z,8.85
2019-02-14T21:03:03.187Z,8.90
2019-02-14T21:05:30.676Z,9.60
2019-02-14T21:07:58.065Z,9.08
2019-02-14T21:10:25.635Z,9.35
2019-02-14T21:12:53.000Z,9.48
2019-02-14T21:15:20.587Z,9.53
2019-02-14T21:17:48.061Z,9.08
2019-02-14T21:20:15.518Z,8.20
2019-02-14T21:22:43.227Z,8.83
2019-02-14T21:25:10.625Z,9.60
2019-02-14T21:27:38.164Z,9.83
2019-02-14T21:30:06.206Z,9.83
2019-02-14T21:32:33.903Z,9.88
2019-02-14T21:35:01.318Z,10.32
2019-02-14T21:37:29.044Z,9.85
2019-02-14T21:39:56.523Z,9.88
2019-02-14T21:42:29.077Z,9.38
2019-02-14T21:44:53.585Z,10.75
2019-02-14T21:47:21.055Z,10.10
2019-02-14T21:49:48.621Z,9.60
2019-02-14T21:52:16.148Z,9.98
2019-02-14T21:54:43.671Z,9.98
2019-02-14T21:57:11.101Z,9.95
2019-02-14T21:59:38.610Z,9.38
2019-02-14T22:02:06.655Z,9.90
2019-02-14T22:04:34.683Z,9.85
2019-02-14T22:07:02.150Z,9.95
2019-02-14T22:09:29.595Z,10.13
2019-02-14T22:11:57.148Z,10.23
2019-02-14T22:14:24.767Z,9.20
2019-02-14T22:16:51.953Z,9.83
2019-02-14T22:19:19.766Z,10.13
2019-02-14T22:21:54.381Z,9.98
2019-02-14T22:24:21.967Z,9.83
2019-02-14T22:26:49.230Z,10.38
2019-02-14T22:29:16.567Z,9.50
2019-02-14T22:31:44.041Z,9.23
2019-02-14T22:34:11.446Z,9.75
2019-02-14T22:36:38.848Z,10.30
2019-02-14T22:39:06.130Z,9.40
2019-02-14T22:41:35.492Z,9.15
2019-02-14T22:44:02.931Z,9.35
2019-02-14T22:46:30.298Z,10.60
2019-02-14T22:48:57.815Z,10.13
2019-02-14T22:51:25.122Z,10.00
2019-02-14T22:53:52.538Z,10.28
2019-02-14T22:56:19.741Z,9.83
2019-02-14T22:58:47.099Z,9.90
2019-02-14T23:01:14.722Z,9.53
2019-02-14T23:03:42.232Z,10.72
2019-02-14T23:06:09.520Z,9.50
2019-02-14T23:08:37.061Z,9.83
2019-02-14T23:11:04.516Z,10.20
2019-02-14T23:13:31.888Z,9.68
2019-02-14T23:15:59.095Z,9.40
2019-02-14T23:18:26.469Z,9.15
2019-02-14T23:20:53.827Z,10.18
2019-02-14T23:23:21.289Z,9.23
2019-02-14T23:25:48.674Z,9.15
2019-02-14T23:28:16.046Z,8.88
2019-02-14T23:30:43.474Z,10.08
2019-02-14T23:33:10.897Z,9.05
2019-02-14T23:35:38.340Z,9.25
2019-02-14T23:38:05.752Z,9.23
2019-02-14T23:40:33.179Z,9.95
2019-02-14T23:43:04.659Z,9.13
2019-02-14T23:45:29.758Z,8.95
2019-02-14T23:47:57.190Z,8.80
2019-02-14T23:50:24.549Z,10.60
2019-02-14T23:52:51.931Z,10.32
2019-02-14T23:55:19.336Z,9.80
2019-02-14T23:57:46.781Z,10.72
